Time;durP1;ratioP1;P1;durP2;ratioP2;P2;SDS_P1;SDS_P2;PMS_P1;PMS_P2;Temp;Humidity;BMP_temperature;BMP_pressure;BME280_temperature;BME280_humidity;BME280_pressure;Samples;Min_cycle;Max_cycle;Signal;HPM_P1;HPM_P2
2023/04/08 00:00:29;;;;;;;1.42;0.30;;;21.60;99.90;;;;;;5049402;28;21231;-77
2023/04/08 00:03:00;;;;;;;0.10;0.10;;;21.50;99.90;;;;;;5050307;28;20204;-77
2023/04/08 00:05:31;;;;;;;3.53;0.30;;;21.60;99.90;;;;;;5056690;28;20200;-78
2023/04/08 00:08:04;;;;;;;0.28;0.20;;;21.60;99.90;;;;;;5082281;28;20230;-79
2023/04/08 00:10:35;;;;;;;0.25;0.20;;;21.60;99.90;;;;;;5092219;28;20206;-78
2023/04/08 00:13:06;;;;;;;0.10;0.10;;;21.70;99.90;;;;;;5081686;28;20195;-76
2023/04/08 00:15:38;;;;;;;0.75;0.40;;;21.70;99.90;;;;;;5092255;28;20231;-78
2023/04/08 00:18:09;;;;;;;0.10;0.10;;;21.90;99.90;;;;;;5091549;28;20721;-77
2023/04/08 00:20:40;;;;;;;1.17;0.30;;;22.00;99.90;;;;;;5092719;28;20199;-76
2023/04/08 00:23:13;;;;;;;0.45;0.40;;;21.90;99.90;;;;;;5076029;28;20200;-78
2023/04/08 00:25:44;;;;;;;1.55;0.20;;;22.00;99.90;;;;;;5072546;28;20196;-77
2023/04/08 00:28:15;;;;;;;0.93;0.32;;;22.10;99.90;;;;;;5072537;28;20248;-77
2023/04/08 00:30:46;;;;;;;1.92;0.90;;;22.10;99.90;;;;;;5073006;28;20231;-77
2023/04/08 00:33:17;;;;;;;0.20;0.20;;;22.10;99.90;;;;;;5072932;28;20200;-78
2023/04/08 00:35:50;;;;;;;3.60;0.20;;;22.10;99.90;;;;;;5072744;28;20225;-78
2023/04/08 00:38:23;;;;;;;0.20;0.20;;;22.40;99.90;;;;;;5071895;28;20291;-78
2023/04/08 00:40:54;;;;;;;0.20;0.20;;;22.50;99.90;;;;;;5072269;28;20200;-78
2023/04/08 00:43:26;;;;;;;0.22;0.17;;;22.40;99.90;;;;;;5072338;28;20227;-78
2023/04/08 00:45:57;;;;;;;0.22;0.20;;;22.40;99.90;;;;;;5075480;28;20203;-78
2023/04/08 00:48:28;;;;;;;0.22;0.20;;;22.40;99.90;;;;;;5101188;28;20234;-77
2023/04/08 00:50:59;;;;;;;0.40;0.20;;;22.30;99.90;;;;;;5094230;28;20555;-78
2023/04/08 00:53:34;;;;;;;0.30;0.20;;;22.30;99.90;;;;;;5092375;28;20203;-76
2023/04/08 00:56:05;;;;;;;0.90;0.32;;;22.30;99.90;;;;;;5071971;28;20199;-78
2023/04/08 00:58:36;;;;;;;1.27;0.30;;;22.30;99.90;;;;;;5086325;28;20655;-77
2023/04/08 01:01:14;;;;;;;0.82;0.40;;;22.40;99.90;;;;;;5086964;28;20578;-78
2023/04/08 01:03:52;;;;;;;0.60;0.20;;;22.30;99.90;;;;;;5072385;28;20569;-78
2023/04/08 01:06:32;;;;;;;0.60;0.20;;;22.30;99.90;;;;;;5071496;28;20728;-77
2023/04/08 01:09:09;;;;;;;1.00;0.52;;;22.40;99.90;;;;;;5071882;28;20253;-78
2023/04/08 01:11:46;;;;;;;0.22;0.20;;;22.50;99.90;;;;;;5071136;28;20188;-78
2023/04/08 01:14:21;;;;;;;0.60;0.30;;;22.70;99.90;;;;;;5075759;28;20195;-77
2023/04/08 01:16:53;;;;;;;0.10;0.10;;;22.90;99.90;;;;;;5071518;28;20587;-78
2023/04/08 01:19:32;;;;;;;0.52;0.25;;;23.00;99.20;;;;;;5088103;28;21286;-78
2023/04/08 01:22:14;;;;;;;0.10;0.10;;;23.10;98.30;;;;;;5071618;28;20210;-78
2023/04/08 01:24:50;;;;;;;1.15;0.30;;;23.10;99.20;;;;;;5071775;28;20204;-78
2023/04/08 01:27:23;;;;;;;0.40;0.40;;;23.00;98.40;;;;;;5071696;28;20576;-77
2023/04/08 01:29:55;;;;;;;0.98;0.40;;;23.00;97.90;;;;;;5070290;28;20674;-78
2023/04/08 01:32:27;;;;;;;0.35;0.30;;;23.00;97.70;;;;;;5071354;28;20196;-77
2023/04/08 01:35:00;;;;;;;0.20;0.10;;;23.00;97.60;;;;;;5071189;28;20662;-78
2023/04/08 01:37:32;;;;;;;0.40;0.30;;;23.00;98.40;;;;;;5071580;28;20195;-78
2023/04/08 01:40:04;;;;;;;1.23;0.20;;;23.00;97.00;;;;;;5071309;28;20203;-77
2023/04/08 01:42:38;;;;;;;0.63;0.22;;;23.00;96.60;;;;;;5071150;28;20234;-78
2023/04/08 01:45:10;;;;;;;0.20;0.20;;;23.10;96.70;;;;;;5089823;28;20203;-78
2023/04/08 01:47:42;;;;;;;0.20;0.20;;;23.00;96.80;;;;;;5078576;28;20226;-78
2023/04/08 01:50:14;;;;;;;2.42;0.30;;;23.00;97.20;;;;;;5079594;28;20211;-77
2023/04/08 01:52:51;;;;;;;0.30;0.20;;;23.00;97.60;;;;;;5075894;28;20225;-78
2023/04/08 01:55:23;;;;;;;1.02;0.50;;;23.20;97.70;;;;;;5072044;28;20713;-78
2023/04/08 01:57:57;;;;;;;0.30;0.20;;;23.30;96.90;;;;;;5091016;28;20199;-77
2023/04/08 02:00:32;;;;;;;0.98;0.40;;;23.20;96.80;;;;;;5090883;28;20316;-78
2023/04/08 02:03:06;;;;;;;0.75;0.38;;;23.30;96.70;;;;;;5091112;28;20264;-78
2023/04/08 02:05:38;;;;;;;1.55;0.50;;;23.40;96.70;;;;;;5090390;28;20252;-78
2023/04/08 02:08:09;;;;;;;2.78;0.30;;;23.50;96.20;;;;;;5090823;28;20731;-78
2023/04/08 02:10:40;;;;;;;0.73;0.30;;;23.60;96.30;;;;;;5089433;28;20547;-78
2023/04/08 02:13:13;;;;;;;0.93;0.75;;;23.70;96.50;;;;;;5070257;28;20200;-78
2023/04/08 02:15:53;;;;;;;1.30;1.10;;;23.90;96.00;;;;;;5090803;28;20223;-78
2023/04/08 02:18:28;;;;;;;0.95;0.68;;;23.80;94.60;;;;;;5090827;28;20702;-77
2023/04/08 02:21:03;;;;;;;1.05;0.45;;;23.80;95.60;;;;;;5089460;28;20199;-78
2023/04/08 02:23:40;;;;;;;2.30;1.17;;;23.90;95.40;;;;;;5090693;28;20562;-78
2023/04/08 02:26:16;;;;;;;0.20;0.20;;;23.90;95.20;;;;;;5090879;28;20650;-77
2023/04/08 02:28:51;;;;;;;0.60;0.55;;;24.00;95.20;;;;;;5079894;28;20242;-78
2023/04/08 02:31:23;;;;;;;1.20;0.90;;;23.90;93.90;;;;;;5070969;28;20195;-77
2023/04/08 02:33:55;;;;;;;1.00;0.68;;;23.90;94.10;;;;;;5070820;28;20551;-77
2023/04/08 02:36:27;;;;;;;0.95;0.50;;;24.00;94.30;;;;;;5069503;28;20571;-78
2023/04/08 02:38:59;;;;;;;1.60;0.30;;;24.00;93.30;;;;;;5070601;28;20195;-78
2023/04/08 02:41:32;;;;;;;1.13;0.40;;;23.90;93.70;;;;;;5070809;28;20237;-78
2023/04/08 02:44:05;;;;;;;2.17;1.30;;;23.80;93.80;;;;;;5079822;28;20206;-78
2023/04/08 02:46:38;;;;;;;0.95;0.50;;;23.90;93.40;;;;;;5089755;28;20210;-78
2023/04/08 02:49:09;;;;;;;0.93;0.70;;;23.90;93.60;;;;;;5090590;28;20234;-78
2023/04/08 02:51:40;;;;;;;0.20;0.20;;;23.90;93.10;;;;;;5090701;28;20202;-78
2023/04/08 02:54:11;;;;;;;1.17;0.60;;;24.10;93.20;;;;;;5078655;28;20207;-78
2023/04/08 02:56:42;;;;;;;0.30;0.30;;;24.30;93.50;;;;;;5090622;28;20202;-78
2023/04/08 02:59:17;;;;;;;0.22;0.20;;;24.40;93.00;;;;;;5090562;28;20780;-79
2023/04/08 03:01:49;;;;;;;1.13;0.30;;;24.50;92.50;;;;;;5082761;28;20552;-77
2023/04/08 03:04:20;;;;;;;1.17;0.50;;;24.50;91.90;;;;;;5083804;28;20222;-77
2023/04/08 03:06:51;;;;;;;0.65;0.50;;;24.50;92.10;;;;;;5082075;28;20199;-78
2023/04/08 03:09:22;;;;;;;0.50;0.40;;;24.60;92.90;;;;;;5089670;28;20219;-78
2023/04/08 03:11:53;;;;;;;0.30;0.28;;;24.70;92.00;;;;;;5084159;28;20191;-78
2023/04/08 03:14:26;;;;;;;0.22;0.22;;;24.70;91.50;;;;;;5089489;28;20291;-78
2023/04/08 03:17:00;;;;;;;0.70;0.30;;;24.70;91.50;;;;;;5088607;28;20191;-78
2023/04/08 03:19:31;;;;;;;1.10;0.30;;;24.60;91.20;;;;;;5083055;28;20227;-78
2023/04/08 03:22:03;;;;;;;0.20;0.20;;;24.50;90.50;;;;;;5089585;28;20196;-77
2023/04/08 03:24:34;;;;;;;0.38;0.38;;;24.60;90.80;;;;;;5089303;28;20191;-77
2023/04/08 03:27:05;;;;;;;0.30;0.30;;;24.60;90.90;;;;;;5091732;28;20201;-78
2023/04/08 03:29:38;;;;;;;0.65;0.38;;;24.70;89.50;;;;;;5079031;28;20686;-77
2023/04/08 03:32:09;;;;;;;0.30;0.20;;;24.70;90.30;;;;;;5079153;28;20685;-80
2023/04/08 03:34:40;;;;;;;0.30;0.30;;;24.90;90.00;;;;;;5081112;28;20206;-79
2023/04/08 03:37:11;;;;;;;0.60;0.50;;;24.80;89.40;;;;;;5084480;28;20220;-79
2023/04/08 03:39:42;;;;;;;0.68;0.30;;;24.70;89.30;;;;;;5073145;28;20196;-79
2023/04/08 03:42:14;;;;;;;0.85;0.40;;;24.70;89.00;;;;;;5088980;28;20195;-79
2023/04/08 03:44:47;;;;;;;1.75;1.17;;;24.60;88.40;;;;;;5087875;28;20203;-79
2023/04/08 03:47:18;;;;;;;1.65;0.70;;;24.40;88.80;;;;;;5075854;28;20275;-79
2023/04/08 03:49:51;;;;;;;0.63;0.32;;;24.50;90.30;;;;;;5087585;28;20644;-78
2023/04/08 03:52:22;;;;;;;0.77;0.40;;;24.50;89.80;;;;;;5084831;28;20196;-79
2023/04/08 03:54:53;;;;;;;0.50;0.50;;;24.50;88.70;;;;;;5093524;28;20203;-79
2023/04/08 03:57:24;;;;;;;1.05;0.40;;;24.40;88.80;;;;;;5078061;28;20207;-79
2023/04/08 03:59:58;;;;;;;2.08;1.27;;;24.50;90.10;;;;;;5084815;28;20188;-79
2023/04/08 04:02:29;;;;;;;1.20;0.80;;;24.30;90.30;;;;;;5072718;28;20196;-79
2023/04/08 04:05:00;;;;;;;0.98;0.63;;;24.30;90.30;;;;;;5076312;28;20219;-78
2023/04/08 04:07:31;;;;;;;2.28;1.33;;;24.30;89.10;;;;;;5080460;28;20204;-79
2023/04/08 04:10:02;;;;;;;1.75;0.55;;;24.30;88.70;;;;;;5082000;28;20227;-79
2023/04/08 04:12:33;;;;;;;1.50;0.80;;;24.20;90.00;;;;;;5092997;28;20195;-79
2023/04/08 04:15:06;;;;;;;1.45;0.50;;;24.10;90.20;;;;;;5084789;28;20238;-77
2023/04/08 04:17:37;;;;;;;0.47;0.45;;;24.20;90.00;;;;;;5084151;28;20199;-79
2023/04/08 04:20:10;;;;;;;0.22;0.22;;;24.30;90.30;;;;;;5092853;28;20223;-78
2023/04/08 04:22:41;;;;;;;0.50;0.40;;;24.20;91.00;;;;;;5092046;28;20199;-78
2023/04/08 04:25:12;;;;;;;0.38;0.38;;;24.10;91.30;;;;;;5093181;28;20195;-78
2023/04/08 04:27:43;;;;;;;0.88;0.40;;;24.00;90.80;;;;;;5082715;28;20662;-78
2023/04/08 04:30:18;;;;;;;0.50;0.30;;;23.90;90.80;;;;;;5072101;28;20234;-78
2023/04/08 04:32:49;;;;;;;0.52;0.40;;;23.90;90.60;;;;;;5072628;28;20245;-78
2023/04/08 04:35:20;;;;;;;0.40;0.30;;;23.90;90.30;;;;;;5072997;28;20208;-79
2023/04/08 04:37:53;;;;;;;0.55;0.32;;;23.80;90.70;;;;;;5073161;28;20196;-78
2023/04/08 04:40:25;;;;;;;1.33;0.80;;;23.90;91.90;;;;;;5079742;28;20686;-76
2023/04/08 04:42:56;;;;;;;0.95;0.70;;;24.00;90.90;;;;;;5076919;28;20192;-77
2023/04/08 04:45:29;;;;;;;0.52;0.47;;;24.00;90.70;;;;;;5085439;28;20654;-77
2023/04/08 04:48:01;;;;;;;1.25;0.30;;;24.00;90.20;;;;;;5082959;28;20555;-77
2023/04/08 04:50:32;;;;;;;0.85;0.40;;;23.90;90.10;;;;;;5089817;28;20318;-77
2023/04/08 04:53:03;;;;;;;0.57;0.40;;;23.70;90.30;;;;;;5091823;28;20199;-79
2023/04/08 04:55:34;;;;;;;0.40;0.30;;;23.70;89.90;;;;;;5101181;28;20649;-77
2023/04/08 04:58:05;;;;;;;2.58;0.70;;;23.80;90.20;;;;;;5091631;28;20231;-79
2023/04/08 05:00:38;;;;;;;0.40;0.32;;;23.80;90.70;;;;;;5091477;28;20199;-78
2023/04/08 05:03:09;;;;;;;1.95;0.50;;;23.60;90.70;;;;;;5074145;28;20202;-79
2023/04/08 05:05:40;;;;;;;1.65;0.38;;;23.70;91.70;;;;;;5071802;28;20639;-78
2023/04/08 05:08:11;;;;;;;0.30;0.30;;;23.40;91.20;;;;;;5087133;28;20203;-79
2023/04/08 05:10:44;;;;;;;0.40;0.40;;;23.50;91.80;;;;;;5084887;28;20578;-79
2023/04/08 05:13:15;;;;;;;0.52;0.43;;;23.60;90.60;;;;;;5071371;28;20686;-79
2023/04/08 05:15:48;;;;;;;0.30;0.30;;;23.50;91.10;;;;;;5072115;28;20230;-78
2023/04/08 05:18:19;;;;;;;0.40;0.40;;;23.40;91.50;;;;;;5084284;28;20206;-78
2023/04/08 05:20:50;;;;;;;0.80;0.50;;;23.40;91.50;;;;;;5081812;28;20199;-79
2023/04/08 05:23:22;;;;;;;0.60;0.60;;;23.40;91.80;;;;;;5078346;28;20200;-79
2023/04/08 05:25:53;;;;;;;0.70;0.50;;;23.30;91.80;;;;;;5072959;28;20187;-79
2023/04/08 05:28:24;;;;;;;0.55;0.40;;;23.40;92.00;;;;;;5079207;28;20206;-79
2023/04/08 05:30:57;;;;;;;0.40;0.40;;;23.40;92.10;;;;;;5091849;28;20199;-78
2023/04/08 05:33:28;;;;;;;0.88;0.45;;;23.50;92.00;;;;;;5090349;28;20218;-79
2023/04/08 05:35:59;;;;;;;0.90;0.57;;;23.70;91.90;;;;;;5085280;28;20203;-80
2023/04/08 05:38:30;;;;;;;2.40;0.60;;;23.70;92.40;;;;;;5071322;28;20203;-78
2023/04/08 05:41:01;;;;;;;0.60;0.40;;;23.80;92.10;;;;;;5071241;28;20195;-80
2023/04/08 05:43:34;;;;;;;1.23;0.50;;;23.80;91.80;;;;;;5085350;28;20203;-80
2023/04/08 05:46:09;;;;;;;0.52;0.50;;;23.80;91.60;;;;;;5089501;28;20199;-78
2023/04/08 05:48:40;;;;;;;1.80;0.80;;;23.70;92.00;;;;;;5088864;28;20194;-78
2023/04/08 05:51:16;;;;;;;1.48;0.65;;;23.80;91.90;;;;;;5081304;28;20676;-78
2023/04/08 05:53:49;;;;;;;0.70;0.68;;;23.80;91.90;;;;;;5089291;28;20194;-78
2023/04/08 05:56:20;;;;;;;1.25;0.70;;;23.70;91.20;;;;;;5101546;28;20203;-78
2023/04/08 05:58:51;;;;;;;0.85;0.80;;;23.50;90.70;;;;;;5095920;28;20199;-78
2023/04/08 06:01:24;;;;;;;2.90;0.80;;;23.40;91.10;;;;;;5091704;28;20199;-78
2023/04/08 06:03:56;;;;;;;0.85;0.80;;;23.50;91.40;;;;;;5075140;28;20202;-78
2023/04/08 06:06:27;;;;;;;1.05;0.80;;;23.60;91.60;;;;;;5087412;28;20199;-78
2023/04/08 06:08:58;;;;;;;1.10;0.85;;;23.80;91.50;;;;;;5071124;28;20211;-78
2023/04/08 06:11:29;;;;;;;1.05;0.90;;;24.00;91.40;;;;;;5070397;28;20553;-78
2023/04/08 06:14:00;;;;;;;2.60;1.02;;;24.20;90.30;;;;;;5087431;28;20685;-79
2023/04/08 06:16:33;;;;;;;0.82;0.82;;;24.40;90.90;;;;;;5085684;28;20594;-79
2023/04/08 06:19:04;;;;;;;1.33;0.90;;;24.50;89.40;;;;;;5083218;28;20231;-77
2023/04/08 06:21:35;;;;;;;1.77;1.10;;;24.50;88.80;;;;;;5090774;28;20195;-76
2023/04/08 06:24:07;;;;;;;1.00;0.90;;;24.10;88.10;;;;;;5090207;28;20569;-77
2023/04/08 06:26:38;;;;;;;1.52;0.93;;;23.90;88.70;;;;;;5079611;28;20203;-78
2023/04/08 06:29:09;;;;;;;1.25;0.90;;;23.70;89.00;;;;;;5071547;28;20219;-78
2023/04/08 06:31:42;;;;;;;1.20;1.10;;;23.60;89.60;;;;;;5077122;28;20224;-77
2023/04/08 06:34:15;;;;;;;1.30;1.10;;;23.60;90.50;;;;;;5070616;28;20209;-77
2023/04/08 06:36:47;;;;;;;6.68;1.30;;;23.50;90.00;;;;;;5069985;28;20215;-77
2023/04/08 06:39:18;;;;;;;2.67;1.30;;;23.40;90.10;;;;;;5070689;28;20196;-77
2023/04/08 06:41:49;;;;;;;1.40;1.30;;;23.50;90.00;;;;;;5070042;28;20213;-77
2023/04/08 06:44:20;;;;;;;3.83;1.50;;;23.50;89.70;;;;;;5077248;28;20218;-79
2023/04/08 06:46:54;;;;;;;1.45;1.20;;;23.50;89.50;;;;;;5089348;28;20570;-77
2023/04/08 06:49:25;;;;;;;1.95;1.30;;;23.50;90.00;;;;;;5089546;28;20702;-77
2023/04/08 06:51:57;;;;;;;1.80;1.35;;;23.50;90.10;;;;;;5087137;28;20592;-77
2023/04/08 06:54:28;;;;;;;1.27;1.17;;;23.50;89.50;;;;;;5069475;28;20188;-77
2023/04/08 06:56:59;;;;;;;3.40;1.15;;;23.40;88.10;;;;;;5082322;28;20198;-77
2023/04/08 06:59:30;;;;;;;1.27;1.05;;;23.20;88.30;;;;;;5081461;28;20196;-78
2023/04/08 07:02:03;;;;;;;1.73;1.30;;;23.20;88.80;;;;;;5089247;28;20199;-78
2023/04/08 07:04:34;;;;;;;1.40;1.30;;;23.20;89.40;;;;;;5081536;28;20600;-78
2023/04/08 07:07:05;;;;;;;2.40;1.65;;;23.20;90.10;;;;;;5075658;28;20208;-78
2023/04/08 07:09:36;;;;;;;1.48;1.38;;;23.10;88.90;;;;;;5074381;28;20256;-78
2023/04/08 07:12:07;;;;;;;1.90;1.45;;;23.10;90.00;;;;;;5085406;28;20609;-78
2023/04/08 07:14:39;;;;;;;2.90;1.50;;;23.00;89.50;;;;;;5092101;28;20823;-78
2023/04/08 07:17:12;;;;;;;3.00;2.30;;;23.00;90.20;;;;;;5081140;28;20670;-78
2023/04/08 07:19:43;;;;;;;4.25;2.47;;;22.90;90.40;;;;;;5092832;28;20641;-78
2023/04/08 07:22:14;;;;;;;2.45;1.45;;;22.80;90.80;;;;;;5092136;28;20673;-78
2023/04/08 07:24:48;;;;;;;2.47;1.80;;;22.60;90.90;;;;;;5093262;28;20210;-77
2023/04/08 07:27:19;;;;;;;1.98;1.60;;;22.50;91.10;;;;;;5079276;28;20195;-77
2023/04/08 07:29:55;;;;;;;2.55;1.73;;;22.60;91.20;;;;;;5081165;28;20701;-77
2023/04/08 07:32:28;;;;;;;4.22;2.63;;;22.40;91.50;;;;;;5073170;28;20210;-77
2023/04/08 07:35:00;;;;;;;2.83;2.33;;;22.50;91.90;;;;;;5076624;28;20191;-78
2023/04/08 07:37:31;;;;;;;2.63;2.13;;;22.40;92.00;;;;;;5079267;28;20220;-78
2023/04/08 07:40:02;;;;;;;1.75;1.50;;;22.40;92.10;;;;;;5089698;28;20200;-81
2023/04/08 07:42:33;;;;;;;2.42;1.48;;;22.30;92.50;;;;;;5092128;28;20203;-78
2023/04/08 07:45:08;;;;;;;3.55;2.10;;;22.30;92.40;;;;;;5093543;28;20287;-78
2023/04/08 07:47:41;;;;;;;5.03;2.60;;;22.20;92.70;;;;;;5088701;28;20273;-78
2023/04/08 07:50:12;;;;;;;2.17;1.83;;;22.10;93.10;;;;;;5092642;28;20235;-78
2023/04/08 07:52:43;;;;;;;4.20;2.25;;;22.10;93.70;;;;;;5074931;28;20207;-78
2023/04/08 07:55:15;;;;;;;4.43;2.40;;;22.00;93.50;;;;;;5073151;28;20196;-77
2023/04/08 07:57:46;;;;;;;1.92;1.80;;;22.00;94.00;;;;;;5076412;28;20211;-77
2023/04/08 08:00:20;;;;;;;2.92;1.83;;;22.00;94.30;;;;;;5092492;28;20191;-77
2023/04/08 08:02:53;;;;;;;3.35;2.17;;;21.90;94.50;;;;;;5092163;28;20249;-77
2023/04/08 08:05:24;;;;;;;3.60;2.17;;;21.90;94.20;;;;;;5093144;28;20585;-77
2023/04/08 08:07:55;;;;;;;5.03;2.97;;;21.90;94.30;;;;;;5091164;28;20210;-78
2023/04/08 08:10:26;;;;;;;2.97;2.30;;;21.80;94.70;;;;;;5092642;28;20215;-77
2023/04/08 08:12:57;;;;;;;3.97;2.80;;;21.70;95.00;;;;;;5093016;28;20199;-77
2023/04/08 08:15:28;;;;;;;4.32;2.85;;;21.70;95.40;;;;;;5094114;28;20223;-77
2023/04/08 08:18:02;;;;;;;3.72;2.75;;;21.70;95.60;;;;;;5079509;28;20196;-77
2023/04/08 08:20:34;;;;;;;5.50;2.78;;;21.60;95.70;;;;;;5072243;28;20698;-77
2023/04/08 08:23:05;;;;;;;4.18;2.20;;;21.60;95.90;;;;;;5072613;28;20219;-77
2023/04/08 08:25:36;;;;;;;3.80;1.90;;;21.50;96.50;;;;;;5086506;28;20196;-77
2023/04/08 08:28:07;;;;;;;3.00;2.10;;;21.60;96.50;;;;;;5089963;28;20210;-76
2023/04/08 08:30:38;;;;;;;2.33;2.10;;;21.50;96.80;;;;;;5072509;28;20566;-77
2023/04/08 08:33:12;;;;;;;9.35;3.85;;;21.50;97.20;;;;;;5090215;28;20269;-77
2023/04/08 08:35:43;;;;;;;4.70;3.03;;;21.50;97.20;;;;;;5071269;28;20199;-77
2023/04/08 08:38:16;;;;;;;3.28;2.45;;;21.40;97.30;;;;;;5081746;28;20200;-76
2023/04/08 08:40:47;;;;;;;4.32;2.90;;;21.40;97.40;;;;;;5071875;28;20283;-77
2023/04/08 08:43:19;;;;;;;6.38;3.15;;;21.40;97.50;;;;;;5071820;28;20607;-79
2023/04/08 08:45:50;;;;;;;10.38;4.63;;;21.40;97.60;;;;;;5082306;28;20200;-79
2023/04/08 08:48:23;;;;;;;4.43;2.80;;;21.40;97.60;;;;;;5081838;28;20207;-79
2023/04/08 08:50:54;;;;;;;7.60;3.78;;;21.20;97.40;;;;;;5077846;28;20225;-79
2023/04/08 08:53:32;;;;;;;4.13;2.50;;;21.20;97.80;;;;;;5073235;28;20569;-79
2023/04/08 08:56:03;;;;;;;3.58;2.58;;;21.20;97.70;;;;;;5091229;28;20199;-79
2023/04/08 08:58:34;;;;;;;3.50;2.42;;;21.20;98.00;;;;;;5100166;28;20183;-78
2023/04/08 09:01:05;;;;;;;2.88;2.22;;;21.20;98.10;;;;;;5077187;28;20196;-78
2023/04/08 09:03:38;;;;;;;3.42;2.13;;;21.20;98.50;;;;;;5071557;28;20191;-78
2023/04/08 09:06:09;;;;;;;2.35;1.80;;;21.20;98.20;;;;;;5077369;28;20199;-79
2023/04/08 09:08:41;;;;;;;4.80;2.30;;;21.10;98.20;;;;;;5079977;28;20658;-79
2023/04/08 09:11:15;;;;;;;2.88;2.63;;;21.00;99.10;;;;;;5081599;28;20342;-79
2023/04/08 09:13:47;;;;;;;4.90;2.78;;;21.10;99.30;;;;;;5090007;28;20202;-79
2023/04/08 09:16:18;;;;;;;4.25;2.38;;;21.20;98.80;;;;;;5072782;28;20220;-80
2023/04/08 09:18:52;;;;;;;2.38;2.10;;;21.10;98.60;;;;;;5079583;28;20594;-79
2023/04/08 09:21:26;;;;;;;5.03;3.47;;;21.00;98.50;;;;;;5074077;28;20196;-79
2023/04/08 09:23:57;;;;;;;3.20;2.47;;;21.00;98.60;;;;;;5091589;28;20283;-78
2023/04/08 09:26:28;;;;;;;5.57;2.10;;;21.00;99.60;;;;;;5073821;28;20605;-78
2023/04/08 09:29:03;;;;;;;5.05;2.00;;;21.00;99.60;;;;;;5089495;28;20576;-81
2023/04/08 09:31:37;;;;;;;3.15;2.08;;;20.90;99.80;;;;;;5074323;28;20230;-78
2023/04/08 09:34:16;;;;;;;4.28;2.17;;;20.90;99.80;;;;;;5081110;28;20207;-78
2023/04/08 09:36:48;;;;;;;2.67;2.13;;;20.90;99.90;;;;;;5079380;28;20199;-79
2023/04/08 09:39:19;;;;;;;7.13;2.80;;;20.90;99.90;;;;;;5070569;28;20204;-79
2023/04/08 09:41:53;;;;;;;2.90;2.10;;;20.90;99.90;;;;;;5070823;28;20200;-79
2023/04/08 09:44:27;;;;;;;2.38;2.17;;;20.80;99.90;;;;;;5071039;28;20214;-78
2023/04/08 09:47:07;;;;;;;4.93;2.28;;;20.70;99.90;;;;;;5070995;28;20603;-78
2023/04/08 09:49:45;;;;;;;2.80;2.00;;;20.80;99.90;;;;;;5071223;28;20191;-78
2023/04/08 09:52:22;;;;;;;2.72;2.10;;;20.70;99.90;;;;;;5071175;28;20200;-79
2023/04/08 09:54:57;;;;;;;4.55;2.15;;;20.80;99.90;;;;;;5087366;28;20199;-77
2023/04/08 09:57:35;;;;;;;3.45;2.20;;;20.70;99.90;;;;;;5069336;28;20206;-78
2023/04/08 10:00:12;;;;;;;2.58;1.98;;;20.70;99.90;;;;;;5074521;28;20202;-78
2023/04/08 10:02:51;;;;;;;5.07;3.63;;;20.60;99.90;;;;;;5088546;28;20526;-79
2023/04/08 10:05:25;;;;;;;3.53;2.20;;;20.60;99.90;;;;;;5090986;28;20284;-79
2023/04/08 10:07:59;;;;;;;4.75;2.17;;;20.50;99.90;;;;;;5078566;28;20222;-79
2023/04/08 10:10:30;;;;;;;2.05;1.70;;;20.60;99.90;;;;;;5069805;28;20565;-79
2023/04/08 10:13:01;;;;;;;2.63;2.10;;;20.60;99.90;;;;;;5070763;28;20563;-79
2023/04/08 10:15:34;;;;;;;2.35;2.10;;;20.60;99.90;;;;;;5080249;28;20237;-79
2023/04/08 10:18:43;;;;;;;2.05;1.75;;;20.50;99.90;;;;;;5075869;28;20195;-78
2023/04/08 10:24:23;;;;;;;2.38;1.90;;;20.50;99.90;;;;;;5166247;27;20512;-79
2023/04/08 10:26:54;;;;;;;2.60;1.80;;;20.40;99.90;;;;;;5149367;27;20242;-78
2023/04/08 10:29:34;;;;;;;2.47;2.08;;;20.40;99.90;;;;;;5139135;27;20205;-78
2023/04/08 10:32:05;;;;;;;4.50;2.50;;;20.30;99.90;;;;;;5135744;27;20193;-79
2023/04/08 10:34:36;;;;;;;3.45;1.90;;;20.30;99.90;;;;;;5148631;27;20204;-79
2023/04/08 10:37:09;;;;;;;2.50;1.77;;;20.40;99.90;;;;;;5148826;27;20189;-78
2023/04/08 10:39:50;;;;;;;3.17;1.90;;;20.30;99.90;;;;;;5144752;27;20302;-78
2023/04/08 10:42:21;;;;;;;2.88;1.50;;;20.30;99.90;;;;;;5144043;27;20311;-79
2023/04/08 10:44:53;;;;;;;4.47;1.58;;;20.30;99.90;;;;;;5149253;27;20721;-78
2023/04/08 10:47:29;;;;;;;2.72;1.45;;;20.30;99.90;;;;;;5149813;27;20656;-78
2023/04/08 10:50:01;;;;;;;4.65;1.48;;;20.40;99.90;;;;;;5136621;27;20206;-79
2023/04/08 10:52:33;;;;;;;1.45;1.10;;;20.30;99.90;;;;;;5135818;27;20224;-79
2023/04/08 10:55:06;;;;;;;3.25;1.45;;;20.30;99.90;;;;;;5146486;27;20197;-78
2023/04/08 10:57:39;;;;;;;1.75;1.35;;;20.40;99.90;;;;;;5149186;27;20221;-78
2023/04/08 11:00:13;;;;;;;3.65;1.40;;;20.40;99.50;;;;;;5149301;27;20206;-78
2023/04/08 11:02:45;;;;;;;2.05;1.40;;;20.40;99.60;;;;;;5154006;27;20217;-80
2023/04/08 11:05:16;;;;;;;2.45;1.30;;;20.30;99.50;;;;;;5164183;27;20200;-78
2023/04/08 11:07:47;;;;;;;2.10;1.60;;;20.30;99.50;;;;;;5149098;27;20213;-78
2023/04/08 11:10:20;;;;;;;1.83;1.23;;;20.20;99.90;;;;;;5148364;27;20194;-79
2023/04/08 11:12:52;;;;;;;2.38;1.15;;;20.30;99.60;;;;;;5148590;27;20228;-79
2023/04/08 11:15:25;;;;;;;3.35;1.30;;;20.20;99.60;;;;;;5140277;27;20194;-78
2023/04/08 11:17:57;;;;;;;1.63;1.20;;;20.20;99.70;;;;;;5148935;27;20197;-78
2023/04/08 11:20:28;;;;;;;2.70;1.27;;;20.20;99.50;;;;;;5147671;27;20667;-78
2023/04/08 11:22:59;;;;;;;1.95;1.10;;;20.20;99.60;;;;;;5145731;27;20594;-80
2023/04/08 11:25:33;;;;;;;3.47;1.42;;;20.20;99.30;;;;;;5142607;27;20288;-79
2023/04/08 11:28:04;;;;;;;1.58;1.08;;;20.20;98.90;;;;;;5131888;27;20190;-79
2023/04/08 11:30:35;;;;;;;1.55;1.10;;;20.20;98.70;;;;;;5128839;27;20567;-79
2023/04/08 11:33:06;;;;;;;1.73;1.10;;;20.10;98.90;;;;;;5134897;27;20214;-78
2023/04/08 11:35:41;;;;;;;1.60;1.00;;;20.10;99.00;;;;;;5129081;27;20214;-80
2023/04/08 11:38:13;;;;;;;1.90;1.02;;;20.20;98.80;;;;;;5130021;27;20206;-79
2023/04/08 11:40:55;;;;;;;1.60;1.00;;;20.10;98.70;;;;;;5124457;27;20221;-79
2023/04/08 11:43:27;;;;;;;2.25;1.05;;;20.10;98.50;;;;;;5128980;27;20233;-79
2023/04/08 11:45:58;;;;;;;1.17;1.08;;;20.10;98.30;;;;;;5132439;27;20245;-78
2023/04/08 11:48:32;;;;;;;1.10;1.00;;;20.00;98.20;;;;;;5134255;27;20198;-78
2023/04/08 11:51:08;;;;;;;1.42;1.00;;;20.10;98.20;;;;;;5117813;27;20217;-78
2023/04/08 11:53:39;;;;;;;1.00;0.80;;;20.10;97.90;;;;;;5113715;28;20588;-78
2023/04/08 11:56:25;;;;;;;2.83;0.90;;;20.00;97.80;;;;;;5125294;27;20190;-78
2023/04/08 11:58:57;;;;;;;1.40;0.90;;;20.00;97.80;;;;;;5136240;27;20205;-79
2023/04/08 12:01:28;;;;;;;3.70;0.93;;;20.10;97.80;;;;;;5134296;27;20586;-78
2023/04/08 12:04:01;;;;;;;1.15;0.90;;;20.00;98.00;;;;;;5129237;27;20221;-78
2023/04/08 12:06:33;;;;;;;1.80;0.80;;;20.00;97.60;;;;;;5122168;27;20194;-79
2023/04/08 12:09:05;;;;;;;3.45;1.00;;;20.00;97.30;;;;;;5137266;27;20201;-78
2023/04/08 12:11:38;;;;;;;4.82;1.25;;;20.00;97.40;;;;;;5132644;27;20194;-77
2023/04/08 12:14:09;;;;;;;3.30;1.13;;;20.00;97.20;;;;;;5133832;27;20221;-78
2023/04/08 12:16:40;;;;;;;1.27;0.80;;;20.00;97.00;;;;;;5130594;27;20272;-77
2023/04/08 12:19:11;;;;;;;1.08;0.88;;;20.00;97.30;;;;;;5131828;27;20205;-79
2023/04/08 12:21:42;;;;;;;0.70;0.70;;;19.90;97.40;;;;;;5133203;27;20644;-78
2023/04/08 12:24:13;;;;;;;0.98;0.70;;;19.90;97.30;;;;;;5122889;27;20697;-79
2023/04/08 12:26:47;;;;;;;3.03;1.13;;;19.90;97.30;;;;;;5115938;27;20217;-78
2023/04/08 12:29:20;;;;;;;1.30;0.73;;;19.90;97.40;;;;;;5126533;27;20202;-78
2023/04/08 12:31:52;;;;;;;1.20;0.70;;;19.90;97.50;;;;;;5133118;27;20198;-78
2023/04/08 12:34:23;;;;;;;1.75;0.80;;;19.80;97.30;;;;;;5127869;27;20202;-78
2023/04/08 12:36:54;;;;;;;1.05;0.90;;;19.80;97.30;;;;;;5131262;27;20194;-78
2023/04/08 12:39:25;;;;;;;0.93;0.73;;;19.70;97.20;;;;;;5122064;27;20256;-78
2023/04/08 12:41:58;;;;;;;2.88;0.90;;;19.70;97.60;;;;;;5119428;27;20205;-78
2023/04/08 12:44:30;;;;;;;0.70;0.70;;;19.70;98.00;;;;;;5116053;27;20230;-78
2023/04/08 12:47:01;;;;;;;1.85;0.90;;;19.70;97.90;;;;;;5111681;28;20198;-78
2023/04/08 12:49:32;;;;;;;1.00;0.80;;;19.60;98.40;;;;;;5124167;27;20190;-79
2023/04/08 12:52:03;;;;;;;2.42;1.23;;;19.70;98.30;;;;;;5128114;27;20187;-78
2023/04/08 12:54:36;;;;;;;2.15;0.90;;;19.60;98.40;;;;;;5112114;28;20657;-78
2023/04/08 12:57:09;;;;;;;0.70;0.70;;;19.60;98.50;;;;;;5122103;27;20205;-79
2023/04/08 12:59:40;;;;;;;1.10;0.68;;;19.60;98.50;;;;;;5131251;27;20220;-79
2023/04/08 13:02:11;;;;;;;0.85;0.70;;;19.60;98.90;;;;;;5111450;28;20244;-79
2023/04/08 13:04:43;;;;;;;1.50;0.80;;;19.60;98.80;;;;;;5127428;27;20229;-78
2023/04/08 13:07:14;;;;;;;1.13;0.70;;;19.60;99.10;;;;;;5132391;27;20198;-78
2023/04/08 13:09:45;;;;;;;1.48;0.75;;;19.60;99.10;;;;;;5130935;27;20201;-77
2023/04/08 13:12:18;;;;;;;0.63;0.63;;;19.60;98.80;;;;;;5134913;27;20194;-78
2023/04/08 13:14:49;;;;;;;1.80;0.70;;;19.40;98.70;;;;;;5134403;27;20204;-78
2023/04/08 13:17:20;;;;;;;0.80;0.75;;;19.50;99.10;;;;;;5132367;27;20673;-78